createdAt,value
2023-04-07T00:01:10.018Z,82.66
2023-04-07T00:03:39.011Z,82.05
2023-04-07T00:06:06.168Z,82.36
2023-04-07T00:08:32.915Z,81.99
2023-04-07T00:10:59.735Z,82.51
2023-04-07T00:13:26.864Z,82.11
2023-04-07T00:15:54.149Z,82.75
2023-04-07T00:18:21.290Z,83.69
2023-04-07T00:20:48.019Z,83.09
2023-04-07T00:23:14.916Z,83.09
2023-04-07T00:25:41.734Z,83.14
2023-04-07T00:28:11.565Z,83.90
2023-04-07T00:30:38.404Z,83.86
2023-04-07T00:33:05.293Z,84.61
2023-04-07T00:35:36.628Z,85.17
2023-04-07T00:38:03.707Z,85.26
2023-04-07T00:40:30.677Z,85.53
2023-04-07T00:42:57.712Z,85.43
2023-04-07T00:45:24.552Z,85.42
2023-04-07T00:47:51.545Z,85.38
2023-04-07T00:50:19.208Z,85.58
2023-04-07T00:52:46.535Z,86.92
2023-04-07T00:55:13.393Z,86.00
2023-04-07T00:57:40.193Z,86.44
2023-04-07T01:00:07.886Z,86.78
2023-04-07T01:02:43.285Z,86.11
2023-04-07T01:05:42.637Z,86.68
2023-04-07T01:08:14.761Z,85.93
2023-04-07T01:10:52.890Z,86.03
2023-04-07T01:13:25.314Z,86.90
2023-04-07T01:15:57.471Z,86.60
2023-04-07T01:18:30.005Z,86.54
2023-04-07T01:21:02.849Z,87.23
2023-04-07T01:24:04.005Z,87.69
2023-04-07T01:26:33.729Z,87.20
2023-04-07T01:29:25.140Z,87.74
2023-04-07T01:31:55.026Z,87.01
2023-04-07T01:34:24.273Z,88.56
2023-04-07T01:36:52.692Z,88.63
2023-04-07T01:39:20.070Z,88.01
2023-04-07T01:41:47.481Z,87.96
2023-04-07T01:44:16.380Z,87.53
2023-04-07T01:46:43.345Z,87.07
2023-04-07T01:49:12.082Z,87.46
2023-04-07T01:51:40.307Z,87.22
2023-04-07T01:54:07.931Z,87.41
2023-04-07T01:56:34.748Z,87.00
2023-04-07T01:59:01.530Z,86.77
2023-04-07T02:01:29.797Z,86.70
2023-04-07T02:04:10.097Z,87.01
2023-04-07T02:06:44.012Z,86.72
2023-04-07T02:09:13.444Z,86.54
2023-04-07T02:11:42.641Z,86.51
2023-04-07T02:14:10.376Z,88.04
2023-04-07T02:16:37.859Z,87.97
2023-04-07T02:19:05.522Z,87.47
2023-04-07T02:21:34.689Z,87.81
2023-04-07T02:24:03.210Z,87.30
2023-04-07T02:26:35.917Z,87.53
2023-04-07T02:29:06.034Z,88.28
2023-04-07T02:31:33.049Z,87.70
2023-04-07T02:33:59.881Z,87.49
2023-04-07T02:36:27.548Z,87.72
2023-04-07T02:38:55.126Z,88.38
2023-04-07T02:41:21.850Z,88.25
2023-04-07T02:43:48.712Z,88.05
2023-04-07T02:46:16.695Z,88.43
2023-04-07T02:48:43.569Z,88.21
2023-04-07T02:51:10.428Z,87.96
2023-04-07T02:53:37.217Z,88.69
2023-04-07T02:56:04.299Z,88.74
2023-04-07T02:58:31.129Z,88.60
2023-04-07T03:00:57.957Z,89.14
2023-04-07T03:03:25.126Z,89.19
2023-04-07T03:05:52.021Z,88.77
2023-04-07T03:08:18.854Z,89.04
2023-04-07T03:10:45.742Z,88.77
2023-04-07T03:13:16.580Z,89.13
2023-04-07T03:15:44.250Z,88.98
2023-04-07T03:18:11.798Z,88.60
2023-04-07T03:20:38.864Z,88.31
2023-04-07T03:23:06.332Z,88.88
2023-04-07T03:25:33.536Z,89.00
2023-04-07T03:28:00.652Z,88.86
2023-04-07T03:30:27.781Z,88.18
2023-04-07T03:32:54.589Z,88.45
2023-04-07T03:35:21.618Z,88.36
2023-04-07T03:37:51.342Z,88.83
2023-04-07T03:40:18.293Z,88.99
2023-04-07T03:42:46.839Z,88.78
2023-04-07T03:45:13.709Z,89.23
2023-04-07T03:47:40.664Z,88.36
2023-04-07T03:50:07.791Z,88.36
2023-04-07T03:52:34.600Z,88.06
2023-04-07T03:55:01.709Z,88.45
2023-04-07T03:57:28.941Z,87.80
2023-04-07T03:59:56.375Z,88.12
2023-04-07T04:02:23.311Z,88.09
2023-04-07T04:04:50.179Z,88.33
2023-04-07T04:07:17.291Z,88.32
2023-04-07T04:09:44.065Z,88.08
2023-04-07T04:12:10.886Z,88.03
2023-04-07T04:14:37.663Z,88.69
2023-04-07T04:17:05.401Z,88.42
2023-04-07T04:19:32.629Z,88.24
2023-04-07T04:21:59.488Z,88.58
2023-04-07T04:24:26.573Z,88.64
2023-04-07T04:26:53.325Z,88.24
2023-04-07T04:29:20.184Z,88.78
2023-04-07T04:31:47.016Z,89.25
2023-04-07T04:34:13.821Z,88.43
2023-04-07T04:36:43.742Z,87.86
2023-04-07T04:39:10.762Z,87.98
2023-04-07T04:41:37.593Z,88.84
2023-04-07T04:44:04.436Z,88.25
2023-04-07T04:46:32.151Z,89.13
2023-04-07T04:48:59.046Z,89.28
2023-04-07T04:51:26.451Z,89.25
2023-04-07T04:53:53.419Z,89.04
2023-04-07T04:56:21.557Z,89.34
2023-04-07T04:58:48.336Z,89.45
2023-04-07T05:01:15.256Z,89.02
2023-04-07T05:03:42.429Z,88.42
2023-04-07T05:06:09.443Z,88.26
2023-04-07T05:08:36.219Z,88.26
2023-04-07T05:11:03.259Z,87.63
2023-04-07T05:13:31.316Z,87.49
2023-04-07T05:15:58.191Z,87.55
2023-04-07T05:18:25.205Z,87.87
2023-04-07T05:20:51.985Z,87.83
2023-04-07T05:23:18.839Z,87.17
2023-04-07T05:25:45.640Z,86.97
2023-04-07T05:28:12.560Z,87.75
2023-04-07T05:30:39.433Z,88.05
2023-04-07T05:33:06.468Z,87.66
2023-04-07T05:35:33.290Z,88.32
2023-04-07T05:38:00.075Z,89.18
2023-04-07T05:40:26.883Z,89.05
2023-04-07T05:42:53.904Z,87.72
2023-04-07T05:45:20.842Z,88.54
2023-04-07T05:47:52.439Z,87.41
2023-04-07T05:50:19.460Z,87.58
2023-04-07T05:52:46.611Z,86.24
2023-04-07T05:55:13.416Z,86.54
2023-04-07T05:57:40.567Z,84.61
2023-04-07T06:00:08.358Z,80.87
2023-04-07T06:02:35.294Z,81.97
2023-04-07T06:05:02.213Z,81.67
2023-04-07T06:07:29.032Z,80.16
2023-04-07T06:09:55.941Z,79.62
2023-04-07T06:12:22.827Z,78.60
2023-04-07T06:14:56.763Z,76.50
2023-04-07T06:17:24.243Z,75.49
2023-04-07T06:19:51.072Z,72.67
2023-04-07T06:22:18.371Z,70.38
2023-04-07T06:24:45.160Z,69.32
2023-04-07T06:27:11.955Z,68.73
2023-04-07T06:29:38.812Z,69.33
2023-04-07T06:32:06.939Z,70.27
2023-04-07T06:34:33.683Z,69.07
2023-04-07T06:37:00.651Z,68.27
2023-04-07T06:39:28.008Z,68.33
2023-04-07T06:41:54.806Z,68.31
2023-04-07T06:44:21.571Z,68.34
2023-04-07T06:46:50.662Z,67.38
2023-04-07T06:49:17.463Z,67.52
2023-04-07T06:51:44.182Z,68.99
2023-04-07T06:54:14.219Z,69.06
2023-04-07T06:56:42.391Z,69.01
2023-04-07T06:59:09.627Z,66.58
2023-04-07T07:01:38.151Z,65.92
2023-04-07T07:04:06.812Z,66.35
2023-04-07T07:06:34.005Z,64.53
2023-04-07T07:09:01.249Z,64.16
2023-04-07T07:11:28.371Z,64.52
2023-04-07T07:13:55.562Z,63.95
2023-04-07T07:16:24.241Z,64.36
2023-04-07T07:18:51.696Z,64.07
2023-04-07T07:21:19.568Z,63.24
2023-04-07T07:23:47.086Z,63.66
2023-04-07T07:26:13.936Z,63.40
2023-04-07T07:28:40.785Z,64.66
2023-04-07T07:31:13.525Z,64.54
2023-04-07T07:33:41.641Z,62.52
2023-04-07T07:36:08.845Z,63.46
2023-04-07T07:38:37.669Z,61.89
2023-04-07T07:41:05.052Z,61.00
2023-04-07T07:43:32.167Z,60.44
2023-04-07T07:46:00.990Z,60.89
2023-04-07T07:48:27.787Z,59.75
2023-04-07T07:50:57.156Z,59.76
2023-04-07T07:53:24.230Z,59.27
2023-04-07T07:55:51.456Z,59.49
2023-04-07T07:58:18.368Z,59.53
2023-04-07T08:00:45.914Z,59.90
2023-04-07T08:03:13.077Z,59.20
2023-04-07T08:05:40.024Z,59.80
2023-04-07T08:08:07.801Z,60.09
2023-04-07T08:10:36.087Z,58.57
2023-04-07T08:13:02.980Z,59.30
2023-04-07T08:15:31.148Z,59.63
2023-04-07T08:18:00.659Z,59.53
2023-04-07T08:20:28.061Z,58.57
2023-04-07T08:22:54.931Z,59.35
2023-04-07T08:25:21.900Z,58.60
2023-04-07T08:27:48.888Z,57.72
2023-04-07T08:30:15.789Z,58.10
2023-04-07T08:32:46.703Z,57.06
2023-04-07T08:35:14.207Z,58.43
2023-04-07T08:37:42.549Z,56.79
2023-04-07T08:40:10.485Z,57.16
2023-04-07T08:42:42.010Z,56.75
2023-04-07T08:45:10.616Z,55.77
2023-04-07T08:47:38.234Z,53.12
2023-04-07T08:50:09.644Z,53.20
2023-04-07T08:52:49.625Z,53.01
2023-04-07T08:55:17.022Z,53.44
2023-04-07T08:57:44.551Z,53.22
2023-04-07T09:00:13.374Z,53.59
2023-04-07T09:02:45.952Z,52.33
2023-04-07T09:05:14.932Z,51.48
2023-04-07T09:07:43.509Z,51.70
2023-04-07T09:10:11.092Z,50.77
2023-04-07T09:12:38.234Z,51.18
2023-04-07T09:15:09.200Z,50.69
2023-04-07T09:17:36.512Z,51.25
2023-04-07T09:20:04.666Z,50.86
2023-04-07T09:22:46.185Z,50.80
2023-04-07T09:25:30.032Z,49.96
2023-04-07T09:27:59.865Z,50.54
2023-04-07T09:30:27.604Z,50.88
2023-04-07T09:32:54.579Z,51.23
2023-04-07T09:35:23.401Z,49.80
2023-04-07T09:38:09.879Z,52.62
2023-04-07T09:40:44.847Z,50.28
2023-04-07T09:43:20.009Z,50.03
2023-04-07T09:45:47.197Z,50.04
2023-04-07T09:48:23.292Z,49.81
2023-04-07T09:50:52.266Z,49.23
2023-04-07T09:53:23.493Z,48.66
2023-04-07T09:55:51.034Z,47.82
2023-04-07T09:58:19.023Z,47.89
2023-04-07T10:00:50.638Z,48.72
2023-04-07T10:03:18.262Z,47.45
2023-04-07T10:05:45.265Z,45.88
2023-04-07T10:08:12.691Z,46.25
2023-04-07T10:10:44.034Z,46.20
2023-04-07T10:13:12.366Z,46.23
2023-04-07T10:15:39.419Z,46.13
2023-04-07T10:18:08.838Z,46.31
2023-04-07T10:20:39.796Z,46.48
2023-04-07T10:23:16.748Z,45.58
2023-04-07T10:25:46.293Z,46.34
2023-04-07T10:28:15.539Z,46.57
2023-04-07T10:30:45.294Z,46.18
2023-04-07T10:33:17.534Z,47.13
2023-04-07T10:36:09.563Z,47.02
2023-04-07T10:38:43.177Z,46.96
2023-04-07T10:41:38.558Z,47.40
2023-04-07T10:47:05.650Z,47.02
2023-04-07T10:49:39.865Z,47.42
2023-04-07T10:52:14.243Z,47.16
2023-04-07T10:54:41.826Z,47.90
2023-04-07T10:57:14.313Z,46.57
2023-04-07T11:00:09.468Z,47.30
2023-04-07T11:02:40.372Z,51.04
2023-04-07T11:05:07.823Z,50.84
2023-04-07T11:07:53.039Z,50.05
2023-04-07T11:10:20.754Z,50.60
2023-04-07T11:13:01.784Z,53.42
2023-04-07T11:15:28.736Z,57.07
2023-04-07T11:18:11.955Z,56.85
2023-04-07T11:20:53.614Z,60.21
2023-04-07T11:23:26.358Z,62.81
2023-04-07T11:28:53.393Z,65.32
2023-04-07T11:42:14.308Z,68.86
2023-04-07T11:44:46.758Z,68.80
2023-04-07T11:47:13.512Z,68.22
2023-04-07T11:49:47.293Z,68.69
2023-04-07T11:52:14.010Z,72.65
2023-04-07T11:54:47.354Z,75.07
2023-04-07T11:57:15.025Z,73.18
2023-04-07T11:59:42.080Z,76.96
2023-04-07T12:02:11.790Z,78.43
2023-04-07T12:04:40.984Z,77.96
2023-04-07T12:07:09.979Z,79.18
2023-04-07T12:09:38.182Z,78.18
2023-04-07T12:12:07.819Z,80.24
2023-04-07T12:14:35.783Z,81.31
2023-04-07T12:17:04.002Z,80.30
2023-04-07T12:19:34.994Z,81.20
2023-04-07T12:22:01.776Z,83.36
2023-04-07T12:24:28.821Z,81.83
2023-04-07T12:26:55.547Z,82.51
2023-04-07T12:29:22.332Z,83.13
2023-04-07T12:31:51.077Z,84.26
2023-04-07T12:34:18.160Z,82.29
2023-04-07T12:36:45.232Z,82.96
2023-04-07T12:39:12.094Z,82.43
2023-04-07T12:41:40.702Z,83.79
2023-04-07T12:44:07.784Z,83.07
2023-04-07T12:46:34.620Z,82.52
2023-04-07T12:49:01.383Z,83.02
2023-04-07T12:51:28.634Z,83.86
2023-04-07T12:53:55.568Z,82.64
2023-04-07T12:56:22.865Z,83.27
2023-04-07T12:58:49.647Z,83.00
2023-04-07T13:01:17.135Z,82.15
2023-04-07T13:03:44.108Z,82.55
2023-04-07T13:06:11.956Z,83.56
2023-04-07T13:08:39.730Z,82.54
2023-04-07T13:11:07.296Z,83.56
2023-04-07T13:13:34.212Z,83.43
2023-04-07T13:16:01.400Z,83.61
2023-04-07T13:18:28.224Z,81.11
2023-04-07T13:21:19.915Z,80.75
2023-04-07T13:23:53.567Z,80.95
2023-04-07T13:26:20.786Z,80.00
2023-04-07T13:28:48.076Z,80.78
2023-04-07T13:31:16.535Z,79.98
2023-04-07T13:33:43.490Z,80.37
2023-04-07T13:36:10.534Z,80.58
2023-04-07T13:38:37.353Z,80.88
2023-04-07T13:41:04.322Z,81.52
2023-04-07T13:43:31.535Z,82.05
2023-04-07T13:45:58.331Z,81.89
2023-04-07T13:48:25.144Z,84.38
2023-04-07T13:50:51.921Z,83.67
2023-04-07T13:53:19.421Z,85.34
2023-04-07T13:55:46.343Z,85.50
2023-04-07T13:58:13.501Z,85.71
2023-04-07T14:00:40.491Z,86.62
2023-04-07T14:03:08.191Z,86.77
2023-04-07T14:05:36.033Z,87.45
2023-04-07T14:08:05.629Z,87.54
2023-04-07T14:10:33.658Z,88.68
2023-04-07T14:13:00.399Z,87.80
2023-04-07T14:15:27.743Z,88.60
2023-04-07T14:17:54.514Z,88.46
2023-04-07T14:20:21.230Z,88.72
2023-04-07T14:22:47.995Z,89.16
2023-04-07T14:25:14.710Z,90.02
2023-04-07T14:27:41.514Z,90.24
2023-04-07T14:30:08.974Z,89.57
2023-04-07T14:32:35.815Z,89.71
2023-04-07T14:35:02.780Z,90.58
2023-04-07T14:37:29.860Z,90.07
2023-04-07T14:42:26.792Z,91.14
2023-04-07T14:44:56.868Z,90.97
2023-04-07T14:47:23.795Z,91.18
2023-04-07T14:49:53.189Z,90.44
2023-04-07T14:52:22.434Z,91.17
2023-04-07T14:54:49.267Z,91.30
2023-04-07T14:57:17.133Z,90.94
2023-04-07T14:59:44.096Z,90.75
2023-04-07T15:02:11.051Z,90.65
2023-04-07T15:04:38.130Z,90.57
2023-04-07T15:07:05.456Z,91.15
2023-04-07T15:09:32.189Z,91.32
2023-04-07T15:12:03.587Z,91.96
2023-04-07T15:14:30.424Z,91.33
2023-04-07T15:16:57.144Z,91.40
2023-04-07T15:19:26.540Z,91.91
2023-04-07T15:21:53.327Z,92.68
2023-04-07T15:24:21.533Z,92.07
2023-04-07T15:26:49.185Z,91.78
2023-04-07T15:29:15.835Z,91.86
2023-04-07T15:31:42.565Z,92.08
2023-04-07T15:34:09.334Z,91.95
2023-04-07T15:36:36.158Z,91.91
2023-04-07T15:39:05.276Z,92.16
2023-04-07T15:41:34.826Z,92.52
2023-04-07T15:44:03.378Z,92.49
2023-04-07T15:46:32.256Z,92.35
2023-04-07T15:49:00.051Z,92.41
2023-04-07T15:51:27.857Z,92.67
2023-04-07T15:53:54.794Z,92.61
2023-04-07T15:56:24.881Z,92.68
2023-04-07T15:58:51.859Z,93.06
2023-04-07T16:01:18.827Z,93.57
2023-04-07T16:03:46.107Z,93.48
2023-04-07T16:06:13.388Z,92.52
2023-04-07T16:08:40.108Z,92.64
2023-04-07T16:11:06.849Z,92.79
2023-04-07T16:13:33.585Z,93.21
2023-04-07T16:16:00.546Z,93.56
2023-04-07T16:18:27.320Z,93.88
2023-04-07T16:20:54.074Z,93.81
2023-04-07T16:23:21.149Z,94.40
2023-04-07T16:25:47.852Z,94.63
2023-04-07T16:28:14.560Z,94.46
2023-04-07T16:30:41.360Z,94.23
2023-04-07T16:33:08.150Z,94.14
2023-04-07T16:35:35.022Z,94.56
2023-04-07T16:38:04.826Z,93.38
2023-04-07T16:40:32.934Z,93.35
2023-04-07T16:42:59.751Z,94.09
2023-04-07T16:45:26.470Z,94.10
2023-04-07T16:47:53.292Z,94.51
2023-04-07T16:50:20.138Z,94.38
2023-04-07T16:52:47.883Z,94.52
2023-04-07T16:55:14.761Z,93.93
2023-04-07T16:57:41.600Z,94.41
2023-04-07T17:00:08.738Z,94.15
2023-04-07T17:02:35.680Z,94.72
2023-04-07T17:05:02.445Z,95.48
2023-04-07T17:07:29.267Z,94.89
2023-04-07T17:09:56.062Z,94.79
2023-04-07T17:12:22.889Z,95.06
2023-04-07T17:14:49.770Z,95.13
2023-04-07T17:17:16.666Z,95.25
2023-04-07T17:19:43.603Z,95.34
2023-04-07T17:22:10.495Z,95.59
2023-04-07T17:24:37.197Z,95.68
2023-04-07T17:27:04.021Z,95.31
2023-04-07T17:29:31.598Z,95.31
2023-04-07T17:31:58.255Z,95.49
2023-04-07T17:34:25.639Z,95.36
2023-04-07T17:36:52.425Z,95.59
2023-04-07T17:39:19.277Z,95.58
2023-04-07T17:41:47.807Z,95.84
2023-04-07T17:44:15.040Z,95.62
2023-04-07T17:46:42.083Z,96.08
2023-04-07T17:49:08.909Z,96.30
2023-04-07T17:51:35.675Z,96.31
2023-04-07T17:54:02.485Z,96.23
2023-04-07T17:56:29.269Z,96.16
2023-04-07T17:58:55.983Z,96.23
2023-04-07T18:01:22.819Z,96.23
2023-04-07T18:03:49.941Z,96.29
2023-04-07T18:06:17.476Z,95.94
2023-04-07T18:08:48.129Z,95.19
2023-04-07T18:11:15.648Z,95.57
2023-04-07T18:13:42.482Z,95.46
2023-04-07T18:16:11.847Z,95.91
2023-04-07T18:18:38.987Z,95.94
2023-04-07T18:21:07.273Z,96.51
2023-04-07T18:23:34.500Z,96.31
2023-04-07T18:26:05.516Z,96.05
2023-04-07T18:28:32.463Z,96.19
2023-04-07T18:31:05.833Z,96.24
2023-04-07T18:33:33.245Z,96.63
2023-04-07T18:36:02.721Z,96.88
2023-04-07T18:38:29.545Z,96.76
2023-04-07T18:40:56.529Z,96.30
2023-04-07T18:43:23.887Z,96.43
2023-04-07T18:45:52.501Z,96.25
2023-04-07T18:48:19.722Z,96.09
2023-04-07T18:50:53.350Z,95.95
2023-04-07T18:53:21.274Z,95.91
2023-04-07T18:55:48.627Z,96.32
2023-04-07T18:58:15.666Z,96.11
2023-04-07T19:00:43.427Z,95.78
2023-04-07T19:03:10.340Z,96.05
2023-04-07T19:05:39.525Z,95.90
2023-04-07T19:08:06.812Z,95.78
2023-04-07T19:10:34.086Z,95.57
2023-04-07T19:13:01.952Z,95.89
2023-04-07T19:15:33.010Z,95.64
2023-04-07T19:18:02.322Z,95.73
2023-04-07T19:20:33.895Z,95.82
2023-04-07T19:23:01.778Z,95.74
2023-04-07T19:25:28.656Z,95.86
2023-04-07T19:27:55.570Z,95.75
2023-04-07T19:30:22.418Z,95.81
2023-04-07T19:32:49.321Z,96.27
2023-04-07T19:35:16.937Z,96.21
2023-04-07T19:37:44.258Z,96.16
2023-04-07T19:40:12.153Z,96.25
2023-04-07T19:42:40.142Z,96.29
2023-04-07T19:45:08.585Z,96.16
2023-04-07T19:47:36.215Z,96.18
2023-04-07T19:50:03.621Z,96.56
2023-04-07T19:52:31.313Z,96.16
2023-04-07T19:54:58.489Z,96.15
2023-04-07T19:57:25.348Z,95.84
2023-04-07T19:59:52.165Z,96.05
2023-04-07T20:02:19.092Z,96.26
2023-04-07T20:04:46.159Z,96.39
2023-04-07T20:07:12.933Z,96.44
2023-04-07T20:09:39.634Z,96.46
2023-04-07T20:12:06.400Z,96.29
2023-04-07T20:14:33.526Z,96.15
2023-04-07T20:17:00.450Z,96.22
2023-04-07T20:19:27.808Z,96.62
2023-04-07T20:21:54.605Z,96.52
2023-04-07T20:24:21.274Z,96.14
2023-04-07T20:26:47.973Z,96.34
2023-04-07T20:29:14.771Z,96.38
2023-04-07T20:31:41.541Z,96.79
2023-04-07T20:34:08.267Z,97.20
2023-04-07T20:36:35.121Z,97.22
2023-04-07T20:39:01.848Z,96.95
2023-04-07T20:41:28.868Z,96.94
2023-04-07T20:43:55.998Z,96.75
2023-04-07T20:46:22.754Z,96.72
2023-04-07T20:48:49.645Z,96.86
2023-04-07T20:51:16.841Z,96.62
2023-04-07T20:53:43.552Z,96.80
2023-04-07T20:56:10.927Z,96.87
2023-04-07T20:58:37.676Z,97.09
2023-04-07T21:01:04.468Z,96.99
2023-04-07T21:03:31.646Z,96.99
2023-04-07T21:05:58.578Z,97.50
2023-04-07T21:08:25.637Z,97.09
2023-04-07T21:10:53.492Z,97.14
2023-04-07T21:13:21.321Z,96.72
2023-04-07T21:15:48.520Z,97.11
2023-04-07T21:18:15.477Z,97.12
2023-04-07T21:20:42.226Z,96.82
2023-04-07T21:23:09.166Z,96.88
2023-04-07T21:25:38.938Z,97.51
2023-04-07T21:28:06.652Z,97.12
2023-04-07T21:30:33.404Z,97.32
2023-04-07T21:33:00.396Z,97.07
2023-04-07T21:35:28.880Z,97.04
2023-04-07T21:37:57.718Z,96.96
2023-04-07T21:40:24.526Z,96.63
2023-04-07T21:42:52.206Z,97.01
2023-04-07T21:45:19.770Z,97.04
2023-04-07T21:47:46.994Z,97.07
2023-04-07T21:50:13.959Z,97.20
2023-04-07T21:52:42.740Z,96.87
2023-04-07T21:55:10.961Z,97.17
2023-04-07T21:57:37.884Z,97.17
2023-04-07T22:00:07.564Z,97.07
2023-04-07T22:02:34.571Z,97.26
2023-04-07T22:05:01.506Z,97.34
2023-04-07T22:07:28.239Z,97.15
2023-04-07T22:09:55.032Z,97.23
2023-04-07T22:12:21.733Z,97.34
2023-04-07T22:14:48.542Z,97.61
2023-04-07T22:17:15.810Z,97.65
2023-04-07T22:19:42.678Z,97.45
2023-04-07T22:22:09.471Z,97.54
2023-04-07T22:24:36.194Z,97.38
2023-04-07T22:27:03.508Z,97.46
2023-04-07T22:29:30.485Z,97.40
2023-04-07T22:31:57.391Z,97.52
2023-04-07T22:34:24.297Z,97.55
2023-04-07T22:36:51.089Z,97.48
2023-04-07T22:39:17.799Z,97.39
2023-04-07T22:41:44.540Z,97.62
2023-04-07T22:44:11.290Z,97.57
2023-04-07T22:46:38.032Z,97.59
2023-04-07T22:49:05.196Z,97.52
2023-04-07T22:51:32.092Z,97.32
2023-04-07T22:53:58.846Z,97.71
2023-04-07T22:56:26.586Z,97.17
2023-04-07T22:58:53.372Z,97.36
2023-04-07T23:01:20.159Z,97.44
2023-04-07T23:03:47.625Z,97.64
2023-04-07T23:06:14.452Z,97.67
2023-04-07T23:08:41.507Z,97.39
2023-04-07T23:11:11.198Z,97.58
2023-04-07T23:13:38.569Z,97.36
2023-04-07T23:16:06.502Z,97.67
2023-04-07T23:18:33.307Z,97.63
2023-04-07T23:21:00.057Z,97.57
2023-04-07T23:23:27.272Z,97.77
2023-04-07T23:25:54.004Z,98.18
2023-04-07T23:28:21.304Z,98.11
2023-04-07T23:30:48.058Z,97.81
2023-04-07T23:33:15.035Z,97.93
2023-04-07T23:35:41.843Z,97.79
2023-04-07T23:38:09.492Z,97.92
2023-04-07T23:40:36.106Z,97.96
2023-04-07T23:43:02.832Z,97.86
2023-04-07T23:45:29.584Z,98.02
2023-04-07T23:47:56.376Z,97.88
2023-04-07T23:50:23.349Z,97.79
2023-04-07T23:52:50.087Z,97.98
2023-04-07T23:55:16.921Z,97.95
2023-04-07T23:57:43.763Z,98.36
